createdAt,value
2018-04-06T00:00:54.346Z,3.00
2018-04-06T00:03:23.372Z,4.33
2018-04-06T00:05:51.689Z,3.20
2018-04-06T00:08:19.938Z,4.70
2018-04-06T00:10:48.206Z,4.00
2018-04-06T00:13:16.451Z,4.03
2018-04-06T00:15:44.714Z,2.83
2018-04-06T00:18:12.951Z,3.20
2018-04-06T00:20:41.282Z,3.00
2018-04-06T00:23:09.553Z,2.87
2018-04-06T00:25:37.844Z,2.80
2018-04-06T00:28:06.070Z,3.43
2018-04-06T00:30:34.329Z,2.63
2018-04-06T00:33:03.330Z,3.60
2018-04-06T00:35:32.351Z,4.03
2018-04-06T00:38:00.590Z,4.40
2018-04-06T00:40:29.638Z,4.00
2018-04-06T00:42:57.882Z,3.57
2018-04-06T00:45:26.906Z,2.80
2018-04-06T00:47:55.149Z,3.07
2018-04-06T00:50:24.162Z,4.07
2018-04-06T00:52:53.192Z,4.70
2018-04-06T00:55:21.461Z,3.50
2018-04-06T00:57:49.711Z,3.50
2018-04-06T01:00:18.723Z,3.23
2018-04-06T01:02:46.987Z,3.80
2018-04-06T01:05:16.011Z,3.77
2018-04-06T01:07:44.246Z,4.00
2018-04-06T01:10:12.583Z,3.00
2018-04-06T01:12:40.869Z,4.30
2018-04-06T01:15:09.137Z,4.10
2018-04-06T01:17:37.410Z,3.93
2018-04-06T01:20:05.652Z,4.03
2018-04-06T01:22:33.907Z,3.60
2018-04-06T01:25:02.194Z,4.10
2018-04-06T01:27:30.434Z,4.47
2018-04-06T01:29:58.673Z,3.70
2018-04-06T01:32:27.718Z,3.80
2018-04-06T01:34:56.095Z,4.10
2018-04-06T01:37:24.379Z,3.67
2018-04-06T01:39:52.615Z,4.87
2018-04-06T01:42:21.672Z,3.87
2018-04-06T01:44:49.909Z,4.00
2018-04-06T01:47:18.934Z,3.97
2018-04-06T01:49:47.214Z,3.90
2018-04-06T01:52:15.474Z,4.50
2018-04-06T01:54:43.785Z,4.93
2018-04-06T01:57:12.067Z,5.40
2018-04-06T01:59:40.315Z,5.70
2018-04-06T02:02:08.618Z,5.20
2018-04-06T02:04:36.874Z,5.10
2018-04-06T02:07:05.901Z,5.30
2018-04-06T02:09:34.144Z,4.90
2018-04-06T02:12:03.166Z,4.30
2018-04-06T02:14:31.413Z,5.00
2018-04-06T02:16:59.730Z,6.10
2018-04-06T02:19:28.026Z,4.73
2018-04-06T02:21:57.139Z,5.60
2018-04-06T02:24:25.453Z,5.10
2018-04-06T02:26:53.686Z,4.80
2018-04-06T02:29:21.947Z,6.07
2018-04-06T02:31:50.206Z,6.07
2018-04-06T02:34:19.212Z,5.00
2018-04-06T02:36:47.478Z,5.10
2018-04-06T02:39:16.525Z,5.90
2018-04-06T02:41:44.779Z,5.07
2018-04-06T02:44:13.016Z,4.73
2018-04-06T02:46:41.265Z,5.13
2018-04-06T02:49:09.544Z,5.40
2018-04-06T02:51:37.805Z,6.07
2018-04-06T02:54:06.073Z,4.90
2018-04-06T02:56:35.086Z,4.33
2018-04-06T02:59:03.334Z,5.83
2018-04-06T03:01:32.358Z,4.37
2018-04-06T03:04:00.685Z,5.50
2018-04-06T03:06:29.038Z,5.97
2018-04-06T03:08:57.281Z,4.67
2018-04-06T03:11:26.301Z,4.80
2018-04-06T03:13:54.596Z,6.10
2018-04-06T03:16:22.854Z,5.23
2018-04-06T03:18:51.103Z,4.60
2018-04-06T03:21:20.121Z,4.57
2018-04-06T03:23:48.395Z,5.03
2018-04-06T03:26:17.434Z,5.80
2018-04-06T03:28:45.676Z,5.40
2018-04-06T03:31:14.690Z,4.50
2018-04-06T03:33:42.926Z,5.50
2018-04-06T03:36:11.277Z,4.87
2018-04-06T03:38:39.541Z,4.43
2018-04-06T03:41:07.807Z,4.93
2018-04-06T03:43:36.045Z,4.80
2018-04-06T03:46:04.396Z,5.47
2018-04-06T03:48:32.687Z,5.30
2018-04-06T03:51:00.955Z,4.77
2018-04-06T03:53:29.234Z,4.90
2018-04-06T03:55:57.514Z,4.70
2018-04-06T03:58:25.765Z,3.60
2018-04-06T04:00:54.782Z,5.60
2018-04-06T04:03:23.095Z,6.00
2018-04-06T04:05:51.337Z,5.80
2018-04-06T04:08:19.588Z,5.43
2018-04-06T04:10:47.841Z,5.10
2018-04-06T04:13:16.197Z,5.43
2018-04-06T04:15:44.470Z,4.90
2018-04-06T04:18:13.495Z,6.43
2018-04-06T04:20:41.746Z,6.33
2018-04-06T04:23:10.002Z,4.90
2018-04-06T04:25:38.243Z,5.00
2018-04-06T04:28:06.626Z,7.50
2018-04-06T04:30:34.889Z,6.63
2018-04-06T04:33:03.154Z,5.70
2018-04-06T04:35:31.399Z,6.23
2018-04-06T04:38:00.408Z,5.97
2018-04-06T04:40:29.414Z,7.93
2018-04-06T04:42:58.435Z,5.43
2018-04-06T04:45:26.875Z,5.50
2018-04-06T04:47:55.218Z,6.80
2018-04-06T04:50:23.497Z,7.30
2018-04-06T04:52:51.765Z,7.60
2018-04-06T04:55:20.008Z,7.60
2018-04-06T04:57:49.033Z,6.50
2018-04-06T05:00:17.288Z,7.50
2018-04-06T05:02:46.296Z,7.50
2018-04-06T05:05:15.324Z,7.07
2018-04-06T05:07:43.565Z,9.17
2018-04-06T05:10:12.597Z,7.70
2018-04-06T05:12:40.839Z,7.63
2018-04-06T05:15:09.913Z,8.33
2018-04-06T05:17:38.206Z,7.50
2018-04-06T05:20:06.414Z,8.60
2018-04-06T05:22:34.767Z,8.60
2018-04-06T05:25:03.004Z,7.83
2018-04-06T05:27:31.246Z,9.23
2018-04-06T05:30:00.280Z,8.40
2018-04-06T05:32:28.570Z,7.93
2018-04-06T05:34:56.822Z,9.03
2018-04-06T05:37:25.175Z,7.63
2018-04-06T05:39:53.395Z,8.80
2018-04-06T05:42:21.633Z,8.10
2018-04-06T05:44:49.900Z,8.47
2018-04-06T05:47:18.143Z,8.40
2018-04-06T05:49:46.390Z,9.23
2018-04-06T05:52:15.409Z,7.47
2018-04-06T05:54:43.655Z,9.80
2018-04-06T05:57:11.940Z,9.27
2018-04-06T05:59:40.185Z,7.30
2018-04-06T06:02:08.450Z,8.10
2018-04-06T06:04:36.744Z,9.57
2018-04-06T06:07:05.007Z,8.87
2018-04-06T06:09:33.327Z,8.40
2018-04-06T06:12:01.622Z,8.97
2018-04-06T06:14:29.954Z,7.83
2018-04-06T06:16:58.230Z,8.93
2018-04-06T06:19:26.478Z,9.33
2018-04-06T06:21:55.503Z,7.90
2018-04-06T06:24:23.791Z,8.67
2018-04-06T06:26:52.051Z,8.87
2018-04-06T06:29:20.289Z,8.30
2018-04-06T06:31:48.548Z,7.60
2018-04-06T06:34:16.806Z,9.00
2018-04-06T06:36:45.094Z,7.87
2018-04-06T06:39:13.376Z,7.47
2018-04-06T06:41:41.638Z,6.87
2018-04-06T06:44:09.901Z,7.77
2018-04-06T06:46:39.004Z,6.03
2018-04-06T06:49:08.014Z,6.90
2018-04-06T06:51:36.314Z,6.43
2018-04-06T06:54:04.563Z,6.03
2018-04-06T06:56:33.686Z,5.60
2018-04-06T06:59:01.959Z,6.97
2018-04-06T07:01:30.210Z,6.93
2018-04-06T07:03:59.222Z,6.13
2018-04-06T07:06:27.467Z,5.57
2018-04-06T07:08:55.719Z,6.83
2018-04-06T07:11:23.968Z,6.03
2018-04-06T07:13:52.231Z,6.03
2018-04-06T07:16:21.231Z,6.47
2018-04-06T07:18:50.259Z,5.73
2018-04-06T07:21:18.563Z,6.70
2018-04-06T07:23:46.826Z,6.10
2018-04-06T07:26:15.115Z,7.90
2018-04-06T07:28:43.378Z,6.33
2018-04-06T07:31:11.674Z,6.13
2018-04-06T07:33:39.955Z,6.53
2018-04-06T07:36:08.201Z,6.07
2018-04-06T07:38:37.262Z,6.30
2018-04-06T07:41:05.521Z,7.53
2018-04-06T07:43:33.772Z,6.57
2018-04-06T07:46:02.008Z,6.40
2018-04-06T07:48:30.313Z,6.30
2018-04-06T07:50:58.546Z,7.00
2018-04-06T07:53:26.794Z,5.67
2018-04-06T07:55:55.045Z,6.87
2018-04-06T07:58:23.296Z,6.60
2018-04-06T08:00:51.577Z,7.33
2018-04-06T08:03:19.991Z,5.93
2018-04-06T08:05:48.219Z,6.23
2018-04-06T08:08:16.518Z,5.80
2018-04-06T08:10:44.762Z,6.33
2018-04-06T08:13:13.107Z,5.87
2018-04-06T08:15:41.343Z,5.83
2018-04-06T08:18:09.609Z,5.70
2018-04-06T08:20:38.595Z,5.43
2018-04-06T08:23:07.610Z,5.40
2018-04-06T08:25:35.872Z,6.20
2018-04-06T08:28:04.894Z,6.00
2018-04-06T08:30:33.203Z,5.70
2018-04-06T08:33:01.459Z,5.13
2018-04-06T08:35:29.736Z,5.00
2018-04-06T08:37:57.989Z,4.87
2018-04-06T08:40:27.031Z,4.90
2018-04-06T08:42:55.285Z,4.77
2018-04-06T08:45:23.526Z,4.10
2018-04-06T08:47:51.870Z,5.20
2018-04-06T08:50:20.118Z,4.93
2018-04-06T08:52:48.377Z,4.53
2018-04-06T08:55:16.720Z,5.47
2018-04-06T08:57:45.033Z,4.30
2018-04-06T09:00:13.302Z,4.13
2018-04-06T09:02:41.570Z,3.60
2018-04-06T09:05:09.821Z,3.80
2018-04-06T09:07:38.123Z,3.67
2018-04-06T09:10:06.367Z,2.97
2018-04-06T09:12:35.432Z,3.10
2018-04-06T09:15:03.713Z,3.40
2018-04-06T09:17:31.948Z,3.33
2018-04-06T09:20:00.208Z,3.60
2018-04-06T09:22:30.193Z,3.30
2018-04-06T09:24:58.439Z,3.30
2018-04-06T09:27:26.717Z,3.17
2018-04-06T09:29:54.952Z,2.90
2018-04-06T09:32:23.992Z,3.00
2018-04-06T09:34:52.252Z,2.97
2018-04-06T09:37:20.526Z,2.47
2018-04-06T09:39:49.552Z,2.73
2018-04-06T09:42:17.814Z,2.40
2018-04-06T09:44:46.121Z,2.30
2018-04-06T09:47:14.474Z,2.60
2018-04-06T09:49:42.749Z,2.90
2018-04-06T09:52:11.062Z,2.27
2018-04-06T09:54:39.338Z,2.50
2018-04-06T09:57:07.582Z,2.30
2018-04-06T09:59:36.622Z,2.50
2018-04-06T10:02:10.534Z,2.33
2018-04-06T10:04:38.848Z,2.23
2018-04-06T10:07:07.086Z,2.10
2018-04-06T10:09:35.369Z,2.20
2018-04-06T10:12:03.657Z,1.67
2018-04-06T10:14:31.930Z,2.07
2018-04-06T10:17:00.173Z,2.23
2018-04-06T10:19:29.195Z,2.10
2018-04-06T10:21:58.241Z,2.10
2018-04-06T10:24:26.464Z,2.00
2018-04-06T10:26:55.482Z,1.73
2018-04-06T10:29:23.808Z,1.97
2018-04-06T10:31:52.030Z,1.77
2018-04-06T10:34:20.318Z,2.10
2018-04-06T10:36:48.568Z,1.93
2018-04-06T10:39:16.903Z,2.23
2018-04-06T10:41:45.151Z,1.53
2018-04-06T10:44:14.868Z,1.70
2018-04-06T10:46:43.889Z,1.80
2018-04-06T10:49:12.179Z,1.47
2018-04-06T10:51:40.418Z,2.20
2018-04-06T10:54:09.443Z,1.60
2018-04-06T10:56:37.694Z,1.27
2018-04-06T10:59:06.714Z,1.80
2018-04-06T11:01:35.006Z,2.20
2018-04-06T11:04:03.507Z,3.13
2018-04-06T11:06:31.736Z,1.90
2018-04-06T11:09:00.786Z,1.93
2018-04-06T11:11:29.086Z,1.70
2018-04-06T11:13:57.322Z,2.10
2018-04-06T11:16:25.559Z,1.87
2018-04-06T11:18:53.811Z,1.67
2018-04-06T11:21:22.050Z,1.90
2018-04-06T11:23:50.306Z,1.40
2018-04-06T11:26:18.549Z,1.60
2018-04-06T11:28:46.814Z,1.37
2018-04-06T11:31:15.109Z,1.53
2018-04-06T11:33:43.370Z,1.50
2018-04-06T11:36:11.672Z,1.50
2018-04-06T11:38:39.942Z,1.63
2018-04-06T11:41:08.195Z,1.53
2018-04-06T11:43:36.506Z,1.67
2018-04-06T11:46:04.754Z,1.53
2018-04-06T11:48:33.882Z,2.13
2018-04-06T11:51:02.171Z,1.57
2018-04-06T11:53:30.428Z,1.70
2018-04-06T11:55:58.666Z,1.13
2018-04-06T11:58:26.924Z,1.43
2018-04-06T12:00:55.166Z,1.50
2018-04-06T12:03:23.451Z,1.20
2018-04-06T12:05:51.738Z,1.70
2018-04-06T12:08:20.027Z,1.30
2018-04-06T12:10:48.267Z,1.53
2018-04-06T12:13:17.295Z,1.30
2018-04-06T12:15:45.586Z,1.30
2018-04-06T12:18:13.875Z,1.33
2018-04-06T12:20:42.151Z,1.30
2018-04-06T12:23:10.430Z,1.30
2018-04-06T12:25:38.681Z,1.63
2018-04-06T12:28:07.721Z,1.40
2018-04-06T12:30:35.957Z,1.40
2018-04-06T12:33:05.038Z,2.13
2018-04-06T12:35:33.262Z,1.60
2018-04-06T12:38:01.525Z,1.30
2018-04-06T12:40:29.824Z,1.70
2018-04-06T12:42:58.068Z,1.50
2018-04-06T12:45:27.085Z,1.17
2018-04-06T12:47:56.105Z,1.50
2018-04-06T12:50:24.381Z,1.40
2018-04-06T12:52:52.622Z,1.13
2018-04-06T12:55:20.908Z,1.60
2018-04-06T12:57:49.203Z,1.60
2018-04-06T13:00:19.053Z,1.67
2018-04-06T13:02:47.330Z,1.20
2018-04-06T13:05:15.616Z,2.13
2018-04-06T13:07:43.894Z,1.57
2018-04-06T13:10:12.182Z,1.53
2018-04-06T13:12:40.434Z,1.53
2018-04-06T13:15:08.710Z,1.80
2018-04-06T13:17:37.786Z,1.70
2018-04-06T13:20:06.051Z,1.93
2018-04-06T13:22:34.285Z,1.73
2018-04-06T13:25:02.547Z,1.60
2018-04-06T13:27:31.577Z,1.50
2018-04-06T13:29:59.829Z,1.63
2018-04-06T13:32:28.836Z,1.80
2018-04-06T13:34:57.135Z,2.03
2018-04-06T13:37:25.415Z,1.90
2018-04-06T13:39:54.448Z,2.20
2018-04-06T13:42:22.686Z,2.47
2018-04-06T13:44:50.950Z,1.80
2018-04-06T13:47:20.006Z,1.80
2018-04-06T13:49:48.258Z,1.83
2018-04-06T13:52:17.329Z,1.97
2018-04-06T13:54:45.633Z,1.93
2018-04-06T13:57:13.875Z,2.00
2018-04-06T13:59:42.151Z,2.17
2018-04-06T14:02:11.315Z,2.40
2018-04-06T14:04:40.568Z,2.10
2018-04-06T14:07:08.854Z,2.13
2018-04-06T14:09:37.879Z,2.50
2018-04-06T14:12:06.167Z,1.80
2018-04-06T14:14:34.422Z,1.87
2018-04-06T14:17:02.670Z,2.47
2018-04-06T14:19:30.932Z,2.37
2018-04-06T14:21:59.185Z,1.67
2018-04-06T14:24:27.437Z,2.00
2018-04-06T14:26:55.702Z,2.33
2018-04-06T14:29:24.883Z,1.60
2018-04-06T14:31:53.233Z,2.40
2018-04-06T14:34:21.502Z,2.97
2018-04-06T14:36:49.722Z,2.30
2018-04-06T14:39:18.356Z,2.30
2018-04-06T14:41:47.338Z,1.90
2018-04-06T14:44:16.385Z,2.23
2018-04-06T14:46:44.771Z,2.50
2018-04-06T14:49:13.023Z,2.33
2018-04-06T14:51:41.273Z,2.23
2018-04-06T14:54:09.545Z,2.33
2018-04-06T14:56:38.308Z,2.60
2018-04-06T14:59:06.569Z,2.00
2018-04-06T15:01:34.801Z,2.73
2018-04-06T15:04:03.140Z,2.50
2018-04-06T15:06:31.578Z,2.33
2018-04-06T15:09:00.602Z,2.80
2018-04-06T15:11:28.843Z,2.53
2018-04-06T15:13:57.863Z,2.37
2018-04-06T15:16:26.894Z,2.53
2018-04-06T15:18:55.181Z,2.50
2018-04-06T15:21:23.430Z,1.97
2018-04-06T15:23:52.466Z,2.70
2018-04-06T15:26:20.721Z,2.90
2018-04-06T15:28:49.019Z,2.80
2018-04-06T15:31:18.127Z,2.97
2018-04-06T15:33:46.367Z,3.13
2018-04-06T15:36:15.390Z,3.00
2018-04-06T15:38:43.650Z,3.37
2018-04-06T15:41:12.687Z,3.20
2018-04-06T15:43:41.015Z,2.97
2018-04-06T15:46:09.286Z,4.07
2018-04-06T15:48:37.519Z,2.80
2018-04-06T15:51:05.770Z,3.30
2018-04-06T15:53:34.775Z,3.20
2018-04-06T15:56:03.919Z,3.40
2018-04-06T15:58:32.533Z,2.53
2018-04-06T16:01:01.223Z,2.97
2018-04-06T16:03:30.632Z,3.50
2018-04-06T16:05:59.977Z,2.40
2018-04-06T16:08:28.525Z,2.63
2018-04-06T16:10:57.589Z,3.10
2018-04-06T16:13:25.843Z,2.83
2018-04-06T16:15:54.860Z,2.93
2018-04-06T16:18:23.160Z,2.77
2018-04-06T16:20:51.469Z,3.23
2018-04-06T16:23:19.715Z,3.20
2018-04-06T16:25:47.953Z,2.87
2018-04-06T16:28:17.009Z,2.97
2018-04-06T16:30:45.271Z,3.17
2018-04-06T16:33:13.530Z,3.63
2018-04-06T16:35:42.549Z,4.10
2018-04-06T16:38:10.806Z,4.30
2018-04-06T16:40:39.855Z,3.50
2018-04-06T16:43:08.958Z,4.00
2018-04-06T16:45:37.207Z,3.70
2018-04-06T16:48:05.500Z,3.20
2018-04-06T16:50:34.516Z,3.43
2018-04-06T16:53:02.782Z,3.50
2018-04-06T16:55:31.099Z,4.03
2018-04-06T16:57:59.786Z,3.37
2018-04-06T17:00:28.377Z,4.53
2018-04-06T17:02:56.962Z,3.57
2018-04-06T17:05:25.411Z,3.90
2018-04-06T17:07:53.755Z,3.47
2018-04-06T17:10:23.075Z,3.10
2018-04-06T17:12:52.288Z,3.30
2018-04-06T17:15:20.681Z,3.57
2018-04-06T17:17:49.098Z,3.63
2018-04-06T17:20:17.496Z,3.90
2018-04-06T17:22:45.903Z,3.27
2018-04-06T17:25:15.144Z,3.77
2018-04-06T17:27:43.457Z,3.60
2018-04-06T17:30:11.794Z,3.70
2018-04-06T17:32:40.444Z,3.67
2018-04-06T17:35:08.680Z,3.23
2018-04-06T17:37:36.947Z,4.13
2018-04-06T17:40:05.187Z,4.03
2018-04-06T17:42:33.434Z,3.30
2018-04-06T17:45:02.392Z,3.80
2018-04-06T17:47:31.413Z,3.37
2018-04-06T17:50:00.605Z,3.93
2018-04-06T17:52:28.905Z,3.50
2018-04-06T17:54:57.333Z,3.30
2018-04-06T17:57:27.256Z,3.77
2018-04-06T17:59:55.741Z,3.70
2018-04-06T18:02:24.176Z,3.67
2018-04-06T18:04:54.250Z,3.43
2018-04-06T18:07:22.940Z,4.40
2018-04-06T18:09:52.325Z,4.43
2018-04-06T18:12:20.590Z,4.47
2018-04-06T18:14:48.887Z,4.20
2018-04-06T18:17:17.147Z,4.80
2018-04-06T18:19:45.442Z,3.53
2018-04-06T18:22:13.695Z,3.77
2018-04-06T18:24:42.007Z,3.77
2018-04-06T18:27:10.268Z,4.20
2018-04-06T18:29:38.518Z,4.63
2018-04-06T18:32:07.536Z,4.37
2018-04-06T18:34:36.543Z,6.20
2018-04-06T18:37:04.839Z,5.43
2018-04-06T18:39:33.073Z,5.77
2018-04-06T18:42:01.347Z,5.20
2018-04-06T18:44:29.588Z,5.53
2018-04-06T18:46:57.857Z,5.37
2018-04-06T18:49:26.128Z,5.07
2018-04-06T18:51:54.367Z,5.20
2018-04-06T18:54:24.155Z,5.70
2018-04-06T18:56:52.400Z,6.20
2018-04-06T18:59:20.653Z,6.50
2018-04-06T19:01:49.706Z,5.33
2018-04-06T19:04:17.970Z,5.50
2018-04-06T19:06:46.992Z,5.47
2018-04-06T19:09:15.278Z,4.77
2018-04-06T19:11:43.523Z,7.00
2018-04-06T19:14:11.828Z,6.70
2018-04-06T19:16:40.082Z,7.93
2018-04-06T19:19:09.112Z,7.30
2018-04-06T19:21:37.358Z,6.03
2018-04-06T19:24:06.423Z,5.93
2018-04-06T19:26:34.668Z,5.43
2018-04-06T19:29:02.917Z,5.30
2018-04-06T19:31:31.942Z,4.93
2018-04-06T19:34:00.221Z,5.70
2018-04-06T19:36:28.541Z,4.73
2018-04-06T19:38:56.786Z,4.87
2018-04-06T19:41:25.026Z,4.40
2018-04-06T19:43:54.081Z,4.40
2018-04-06T19:46:22.359Z,4.10
2018-04-06T19:48:50.606Z,4.70
2018-04-06T19:51:19.627Z,4.63
2018-04-06T19:53:47.911Z,4.50
2018-04-06T19:56:16.193Z,4.70
2018-04-06T19:58:44.474Z,4.90
2018-04-06T20:01:12.868Z,4.97
2018-04-06T20:03:41.888Z,5.23
2018-04-06T20:06:10.148Z,4.40
2018-04-06T20:08:38.410Z,5.27
2018-04-06T20:11:06.704Z,5.53
2018-04-06T20:13:34.974Z,4.67
2018-04-06T20:16:05.068Z,5.23
2018-04-06T20:18:34.522Z,4.70
2018-04-06T20:21:02.801Z,5.23
2018-04-06T20:23:31.075Z,5.70
2018-04-06T20:25:59.354Z,5.57
2018-04-06T20:28:27.612Z,5.43
2018-04-06T20:30:56.622Z,5.30
2018-04-06T20:33:24.883Z,4.97
2018-04-06T20:35:53.903Z,6.00
2018-04-06T20:38:23.015Z,5.57
2018-04-06T20:40:51.246Z,5.70
2018-04-06T20:43:19.578Z,4.60
2018-04-06T20:45:47.835Z,6.50
2018-04-06T20:48:16.086Z,5.57
2018-04-06T20:50:44.343Z,5.77
2018-04-06T20:53:12.584Z,5.60
2018-04-06T20:55:40.874Z,5.50
2018-04-06T20:58:09.332Z,5.37
2018-04-06T21:00:37.878Z,5.20
2018-04-06T21:03:06.137Z,6.13
2018-04-06T21:05:34.396Z,5.83
2018-04-06T21:08:02.636Z,4.93
2018-04-06T21:10:30.902Z,5.10
2018-04-06T21:12:59.141Z,5.87
2018-04-06T21:15:27.400Z,5.40
2018-04-06T21:17:56.434Z,4.90
2018-04-06T21:20:24.711Z,5.33
2018-04-06T21:22:52.949Z,5.23
2018-04-06T21:25:21.967Z,4.73
2018-04-06T21:27:50.262Z,5.17
2018-04-06T21:30:19.354Z,4.90
2018-04-06T21:32:47.600Z,4.80
2018-04-06T21:35:16.634Z,5.40
2018-04-06T21:37:44.877Z,5.77
2018-04-06T21:40:13.173Z,5.00
2018-04-06T21:42:42.195Z,5.50
2018-04-06T21:45:10.453Z,5.37
2018-04-06T21:47:39.467Z,5.77
2018-04-06T21:50:07.742Z,4.50
2018-04-06T21:52:36.047Z,5.73
2018-04-06T21:55:04.289Z,4.63
2018-04-06T21:57:33.324Z,5.40
2018-04-06T22:00:01.579Z,5.73
2018-04-06T22:02:29.848Z,5.30
2018-04-06T22:04:58.160Z,5.00
2018-04-06T22:07:26.425Z,5.60
2018-04-06T22:09:54.673Z,4.97
2018-04-06T22:12:23.695Z,4.97
2018-04-06T22:14:51.995Z,4.80
2018-04-06T22:17:20.248Z,4.60
2018-04-06T22:19:49.256Z,4.03
2018-04-06T22:22:17.515Z,4.30
2018-04-06T22:24:46.522Z,4.87
2018-04-06T22:27:15.546Z,4.50
2018-04-06T22:29:43.794Z,4.57
2018-04-06T22:32:12.925Z,4.47
2018-04-06T22:34:41.256Z,5.20
2018-04-06T22:37:11.023Z,5.20
2018-04-06T22:39:39.297Z,4.47
2018-04-06T22:42:07.569Z,4.70
2018-04-06T22:44:35.811Z,4.97
2018-04-06T22:47:04.077Z,5.13
2018-04-06T22:49:32.314Z,4.60
2018-04-06T22:52:00.608Z,4.07
2018-04-06T22:54:28.867Z,5.07
2018-04-06T22:56:57.161Z,5.00
2018-04-06T22:59:25.446Z,5.30
2018-04-06T23:01:53.728Z,4.67
2018-04-06T23:04:22.014Z,4.57
2018-04-06T23:06:50.261Z,4.67
2018-04-06T23:09:18.563Z,3.87
2018-04-06T23:11:46.839Z,3.73
2018-04-06T23:14:15.835Z,4.10
2018-04-06T23:16:44.126Z,4.33
2018-04-06T23:19:12.394Z,4.60
2018-04-06T23:21:40.642Z,4.40
2018-04-06T23:24:08.973Z,4.40
2018-04-06T23:26:37.210Z,3.60
2018-04-06T23:29:06.228Z,4.50
2018-04-06T23:31:34.474Z,4.33
2018-04-06T23:34:02.719Z,4.20
2018-04-06T23:36:30.986Z,4.23
2018-04-06T23:38:59.260Z,4.30
2018-04-06T23:41:27.541Z,4.60
2018-04-06T23:43:55.793Z,4.07
2018-04-06T23:46:24.804Z,4.70
2018-04-06T23:48:53.104Z,3.90
2018-04-06T23:51:21.334Z,3.83
2018-04-06T23:53:50.385Z,4.80
2018-04-06T23:56:18.621Z,4.17
2018-04-06T23:58:47.639Z,3.77
